Main page
METAR-TAF:

METAR-TAF

Airports :

Zakynthos International Airport

Zakynthos, Greece

latitude: 37-45N, longitude: 020-53E, elevation: 3 m

Current weather observation

The report was made 24 minutes ago, at 01:50 UTC
Calm wind
Temperature 22°C
Humidity 94%
Pressure 1011 hPa
Visibility 10 km or more
no clouds below 1500 m and no cumulonimbus

METAR: LGZA 170150Z 00000KT CAVOK 22/21 Q1011

Time: 05:14 (02:14 UTC)

Forecast

The report was made 3 hours and 14 minutes ago, at 23:00 UTC
Forecast valid from 17 at 00 UTC to 17 at 09 UTC
Wind 7 kt from the North/Northwest
Visibility 10 km or more
no clouds below 1500 m and no cumulonimbus
Becoming
from 17 at 04 UTC to 17 at 06 UTC
Wind 7 kt from the Southeast

TAF: LGZA 162300Z 1700/1709 33007KT CAVOK BECMG 1704/1706 14007KT

Weather observations and forecasts of more than 4000 airports (METAR and TAF reports).

The available stations are represented by yellow and red dots on the map.

Hover mouse over dot to see the name of the station.

Then click to see weather observations and forecasts.

To change the map : click on the green buttons with a black cross to zoom in, on the green button with a dash to zoom out, or on the green arrows for adjacent maps.


METAR-TAF: